createdAt,value
2018-02-05T00:00:40.164Z,73.80
2018-02-05T00:03:08.208Z,73.80
2018-02-05T00:05:36.996Z,73.90
2018-02-05T00:08:04.992Z,73.80
2018-02-05T00:10:33.761Z,73.80
2018-02-05T00:13:01.764Z,73.80
2018-02-05T00:15:29.758Z,73.80
2018-02-05T00:17:58.517Z,74.40
2018-02-05T00:20:26.523Z,73.80
2018-02-05T00:22:54.520Z,73.90
2018-02-05T00:25:23.302Z,73.80
2018-02-05T00:27:51.308Z,73.70
2018-02-05T00:30:20.096Z,73.90
2018-02-05T00:32:48.876Z,73.90
2018-02-05T00:35:16.868Z,73.80
2018-02-05T00:37:44.864Z,73.70
2018-02-05T00:40:12.900Z,73.80
2018-02-05T00:42:40.920Z,73.80
2018-02-05T00:45:10.606Z,73.80
2018-02-05T00:47:38.612Z,73.70
2018-02-05T00:50:06.620Z,73.70
2018-02-05T00:52:35.392Z,73.30
2018-02-05T00:55:03.393Z,73.20
2018-02-05T00:57:31.408Z,73.60
2018-02-05T00:59:59.415Z,73.60
2018-02-05T01:02:27.416Z,73.60
2018-02-05T01:04:55.428Z,73.60
2018-02-05T01:07:23.418Z,73.50
2018-02-05T01:09:52.191Z,73.60
2018-02-05T01:12:20.184Z,73.60
2018-02-05T01:14:48.182Z,73.50
2018-02-05T01:17:16.184Z,73.50
2018-02-05T01:19:45.076Z,72.50
2018-02-05T01:22:13.854Z,73.40
2018-02-05T01:24:41.856Z,73.40
2018-02-05T01:27:09.856Z,73.40
2018-02-05T01:32:07.854Z,73.40
2018-02-05T01:34:35.945Z,73.20
2018-02-05T01:37:03.961Z,73.20
2018-02-05T01:39:31.997Z,73.20
2018-02-05T01:42:00.056Z,73.20
2018-02-05T01:44:28.100Z,73.20
2018-02-05T01:46:56.144Z,73.10
2018-02-05T01:49:24.232Z,73.10
2018-02-05T01:51:52.268Z,73.60
2018-02-05T01:54:20.324Z,73.40
2018-02-05T01:56:49.132Z,73.00
2018-02-05T01:59:17.954Z,73.10
2018-02-05T02:01:46.005Z,73.10
2018-02-05T02:04:14.808Z,73.90
2018-02-05T02:06:43.633Z,74.10
2018-02-05T02:09:12.472Z,74.00
2018-02-05T02:11:40.532Z,74.30
2018-02-05T02:14:08.572Z,74.80
2018-02-05T02:16:36.636Z,74.20
2018-02-05T02:19:04.673Z,74.30
2018-02-05T02:21:32.736Z,74.20
2018-02-05T02:24:01.553Z,74.20
2018-02-05T02:26:29.601Z,74.10
2018-02-05T02:28:57.656Z,73.60
2018-02-05T02:31:25.740Z,72.90
2018-02-05T02:33:53.798Z,72.80
2018-02-05T02:36:21.833Z,72.90
2018-02-05T02:38:49.874Z,72.90
2018-02-05T02:41:17.920Z,72.90
2018-02-05T02:43:45.958Z,72.80
2018-02-05T02:46:14.034Z,72.90
2018-02-05T02:48:42.061Z,72.80
2018-02-05T02:51:10.116Z,73.50
2018-02-05T02:53:38.403Z,72.80
2018-02-05T02:56:06.475Z,72.90
2018-02-05T02:58:34.529Z,72.90
2018-02-05T03:01:02.586Z,72.80
2018-02-05T03:03:30.641Z,72.80
2018-02-05T03:05:59.018Z,72.90
2018-02-05T03:08:27.064Z,72.90
2018-02-05T03:10:55.107Z,72.60
2018-02-05T03:13:23.154Z,72.20
2018-02-05T03:15:51.214Z,72.80
2018-02-05T03:18:20.016Z,72.80
2018-02-05T03:20:48.833Z,72.70
2018-02-05T03:23:16.879Z,72.60
2018-02-05T03:25:46.456Z,72.70
2018-02-05T03:28:14.497Z,72.70
2018-02-05T03:30:42.561Z,72.80
2018-02-05T03:33:10.644Z,72.70
2018-02-05T03:35:38.704Z,72.40
2018-02-05T03:38:06.763Z,72.00
2018-02-05T03:40:34.792Z,71.90
2018-02-05T03:43:02.852Z,71.80
2018-02-05T03:45:30.885Z,72.60
2018-02-05T03:47:59.710Z,72.70
2018-02-05T03:50:27.744Z,72.70
2018-02-05T03:52:55.802Z,72.60
2018-02-05T03:55:23.847Z,72.70
2018-02-05T03:57:52.676Z,72.70
2018-02-05T04:00:20.713Z,72.70
2018-02-05T04:02:48.780Z,73.20
2018-02-05T04:05:16.836Z,74.70
2018-02-05T04:07:44.894Z,73.80
2018-02-05T04:10:12.928Z,73.90
2018-02-05T04:12:41.001Z,73.80
2018-02-05T04:15:09.040Z,73.80
2018-02-05T04:17:37.089Z,73.00
2018-02-05T04:20:05.160Z,73.20
2018-02-05T04:22:33.207Z,74.00
2018-02-05T04:25:01.277Z,74.70
2018-02-05T04:27:29.329Z,74.70
2018-02-05T04:29:57.378Z,74.90
2018-02-05T04:32:25.416Z,74.20
2018-02-05T04:34:54.305Z,72.60
2018-02-05T04:37:22.411Z,72.50
2018-02-05T04:39:51.239Z,73.80
2018-02-05T04:42:19.408Z,73.60
2018-02-05T04:44:47.610Z,73.40
2018-02-05T04:47:15.664Z,73.00
2018-02-05T04:49:44.500Z,72.50
2018-02-05T04:52:12.561Z,72.40
2018-02-05T04:54:40.603Z,72.50
2018-02-05T04:57:08.674Z,72.50
2018-02-05T04:59:36.744Z,72.50
2018-02-05T05:02:04.789Z,72.50
2018-02-05T05:04:33.948Z,73.80
2018-02-05T05:07:01.969Z,73.80
2018-02-05T05:09:30.792Z,73.40
2018-02-05T05:11:58.828Z,73.30
2018-02-05T05:14:26.888Z,72.40
2018-02-05T05:16:55.419Z,72.40
2018-02-05T05:19:23.463Z,72.40
2018-02-05T05:21:51.517Z,72.40
2018-02-05T05:24:20.322Z,74.10
2018-02-05T05:26:48.377Z,73.40
2018-02-05T05:29:16.417Z,73.50
2018-02-05T05:31:44.844Z,73.00
2018-02-05T05:34:12.906Z,73.50
2018-02-05T05:36:40.984Z,73.50
2018-02-05T05:39:09.028Z,73.10
2018-02-05T05:41:41.521Z,73.30
2018-02-05T05:44:09.585Z,73.30
2018-02-05T05:46:37.612Z,72.90
2018-02-05T05:49:05.675Z,72.40
2018-02-05T05:51:33.733Z,73.10
2018-02-05T05:54:01.785Z,73.80
2018-02-05T05:56:29.819Z,72.30
2018-02-05T05:58:58.645Z,72.20
2018-02-05T06:01:26.710Z,72.00
2018-02-05T06:03:55.504Z,71.70
2018-02-05T06:06:24.325Z,71.80
2018-02-05T06:08:52.376Z,71.90
2018-02-05T06:11:20.432Z,70.90
2018-02-05T06:13:48.473Z,71.00
2018-02-05T06:16:16.537Z,72.10
2018-02-05T06:18:45.356Z,70.60
2018-02-05T06:21:13.454Z,70.50
2018-02-05T06:23:41.509Z,69.80
2018-02-05T06:26:11.099Z,69.70
2018-02-05T06:28:39.124Z,69.70
2018-02-05T06:31:07.732Z,70.10
2018-02-05T06:33:35.768Z,70.10
2018-02-05T06:36:05.360Z,69.40
2018-02-05T06:38:33.424Z,69.40
2018-02-05T06:41:01.465Z,71.60
2018-02-05T06:43:30.302Z,67.00
2018-02-05T06:45:58.352Z,67.00
2018-02-05T06:48:27.160Z,68.00
2018-02-05T06:51:07.788Z,67.90
2018-02-05T06:53:47.811Z,68.50
2018-02-05T06:56:24.488Z,66.80
2018-02-05T06:58:53.595Z,67.40
2018-02-05T07:01:21.629Z,67.40
2018-02-05T07:03:49.689Z,66.60
2018-02-05T07:06:17.737Z,67.80
2018-02-05T07:08:47.301Z,66.70
2018-02-05T07:11:15.373Z,66.70
2018-02-05T07:13:43.428Z,67.80
2018-02-05T07:16:11.483Z,67.10
2018-02-05T07:18:39.530Z,67.60
2018-02-05T07:21:07.583Z,67.50
2018-02-05T07:23:35.641Z,67.00
2018-02-05T07:26:03.668Z,67.60
2018-02-05T07:28:32.484Z,66.20
2018-02-05T07:31:00.681Z,66.20
2018-02-05T07:33:28.703Z,66.20
2018-02-05T07:35:56.779Z,66.20
2018-02-05T07:38:24.812Z,65.60
2018-02-05T07:40:52.850Z,65.40
2018-02-05T07:43:20.913Z,64.80
2018-02-05T07:45:49.002Z,63.80
2018-02-05T07:48:17.080Z,63.40
2018-02-05T07:50:45.184Z,63.50
2018-02-05T07:53:13.252Z,64.30
2018-02-05T07:55:41.322Z,63.50
2018-02-05T07:58:09.407Z,62.90
2018-02-05T08:00:37.436Z,62.50
2018-02-05T08:03:05.492Z,63.60
2018-02-05T08:05:33.538Z,62.60
2018-02-05T08:08:02.403Z,62.40
2018-02-05T08:10:30.413Z,62.30
2018-02-05T08:12:59.228Z,61.40
2018-02-05T08:15:27.277Z,61.40
2018-02-05T08:17:55.312Z,61.40
2018-02-05T08:20:23.426Z,60.60
2018-02-05T08:22:51.425Z,59.50
2018-02-05T08:25:19.467Z,59.10
2018-02-05T08:27:47.514Z,59.20
2018-02-05T08:30:16.313Z,59.30
2018-02-05T08:32:45.168Z,59.60
2018-02-05T08:35:13.193Z,59.50
2018-02-05T08:37:41.253Z,59.20
2018-02-05T08:40:09.635Z,59.90
2018-02-05T08:42:38.170Z,59.40
2018-02-05T08:45:06.213Z,58.80
2018-02-05T08:47:34.379Z,58.60
2018-02-05T08:50:02.424Z,58.00
2018-02-05T08:52:31.233Z,58.20
2018-02-05T08:55:00.063Z,57.60
2018-02-05T08:57:28.264Z,57.50
2018-02-05T08:59:56.285Z,56.80
2018-02-05T09:02:24.328Z,57.10
2018-02-05T09:04:52.384Z,57.70
2018-02-05T09:07:20.438Z,57.40
2018-02-05T09:09:48.471Z,57.70
2018-02-05T09:12:16.533Z,57.00
2018-02-05T09:14:44.574Z,55.90
2018-02-05T09:17:12.613Z,56.90
2018-02-05T09:19:40.754Z,56.00
2018-02-05T09:22:08.763Z,56.00
2018-02-05T09:24:37.576Z,55.70
2018-02-05T09:27:05.608Z,55.60
2018-02-05T09:29:33.694Z,56.30
2018-02-05T09:32:01.697Z,56.40
2018-02-05T09:34:29.749Z,55.20
2018-02-05T09:36:57.797Z,54.30
2018-02-05T09:39:25.828Z,53.60
2018-02-05T09:41:53.878Z,54.40
2018-02-05T09:44:21.926Z,54.00
2018-02-05T09:46:49.978Z,52.20
2018-02-05T09:49:18.013Z,53.50
2018-02-05T09:51:46.076Z,52.60
2018-02-05T09:54:14.885Z,53.50
2018-02-05T09:56:43.693Z,52.80
2018-02-05T09:59:12.516Z,52.10
2018-02-05T10:01:40.556Z,52.10
2018-02-05T10:04:09.372Z,52.80
2018-02-05T10:06:38.196Z,52.60
2018-02-05T10:09:06.221Z,52.60
2018-02-05T10:11:34.283Z,52.10
2018-02-05T10:14:02.309Z,53.50
2018-02-05T10:16:31.125Z,51.90
2018-02-05T10:18:59.936Z,52.50
2018-02-05T10:21:28.744Z,52.50
2018-02-05T10:23:56.777Z,52.40
2018-02-05T10:26:24.832Z,51.80
2018-02-05T10:28:52.851Z,51.90
2018-02-05T10:31:20.920Z,50.80
2018-02-05T10:33:48.957Z,49.10
2018-02-05T10:36:17.049Z,49.00
2018-02-05T10:38:45.116Z,49.20
2018-02-05T10:41:13.940Z,50.30
2018-02-05T10:43:41.992Z,50.20
2018-02-05T10:46:10.823Z,50.50
2018-02-05T10:48:38.852Z,50.50
2018-02-05T10:51:06.904Z,49.80
2018-02-05T10:53:34.929Z,49.60
2018-02-05T10:56:02.972Z,49.80
2018-02-05T10:58:31.025Z,47.80
2018-02-05T11:00:59.820Z,49.30
2018-02-05T11:03:28.645Z,47.70
2018-02-05T11:05:56.692Z,47.70
2018-02-05T11:08:24.720Z,47.30
2018-02-05T11:10:52.760Z,48.10
2018-02-05T11:13:20.800Z,49.70
2018-02-05T11:15:48.852Z,49.10
2018-02-05T11:18:17.640Z,48.10
2018-02-05T11:20:46.460Z,47.40
2018-02-05T11:23:14.512Z,47.30
2018-02-05T11:25:42.557Z,49.40
2018-02-05T11:28:10.606Z,45.70
2018-02-05T11:30:38.660Z,48.20
2018-02-05T11:33:07.496Z,46.20
2018-02-05T11:35:35.518Z,46.10
2018-02-05T11:38:03.588Z,46.40
2018-02-05T11:40:31.637Z,45.90
2018-02-05T11:43:00.445Z,44.20
2018-02-05T11:45:28.496Z,44.20
2018-02-05T11:47:56.528Z,44.20
2018-02-05T11:50:24.572Z,42.70
2018-02-05T11:52:52.593Z,45.90
2018-02-05T11:55:20.636Z,42.90
2018-02-05T11:57:48.685Z,44.30
2018-02-05T12:00:16.712Z,42.80
2018-02-05T12:02:45.570Z,42.20
2018-02-05T12:05:13.590Z,42.10
2018-02-05T12:07:41.829Z,42.90
2018-02-05T12:10:09.870Z,43.90
2018-02-05T12:12:38.683Z,42.40
2018-02-05T12:15:07.489Z,42.20
2018-02-05T12:17:35.522Z,42.20
2018-02-05T12:20:03.577Z,42.00
2018-02-05T12:22:31.605Z,42.20
2018-02-05T12:24:59.659Z,42.80
2018-02-05T12:27:27.700Z,42.10
2018-02-05T12:29:56.497Z,41.80
2018-02-05T12:32:25.317Z,43.00
2018-02-05T12:34:53.357Z,43.00
2018-02-05T12:37:22.189Z,42.40
2018-02-05T12:39:50.989Z,42.40
2018-02-05T12:42:19.049Z,42.30
2018-02-05T12:44:47.094Z,43.60
2018-02-05T12:47:15.142Z,43.40
2018-02-05T12:49:43.968Z,44.00
2018-02-05T12:52:12.003Z,43.80
2018-02-05T12:54:40.160Z,40.90
2018-02-05T12:57:08.200Z,42.10
2018-02-05T12:59:46.176Z,42.70
2018-02-05T13:02:14.204Z,43.40
2018-02-05T13:04:52.898Z,43.10
2018-02-05T13:07:20.951Z,40.00
2018-02-05T13:09:48.980Z,39.50
2018-02-05T13:12:17.024Z,41.00
2018-02-05T13:14:45.061Z,42.70
2018-02-05T13:17:13.886Z,42.50
2018-02-05T13:19:41.921Z,42.50
2018-02-05T13:22:10.001Z,43.10
2018-02-05T13:24:38.034Z,41.00
2018-02-05T13:27:06.097Z,42.40
2018-02-05T13:29:34.150Z,41.10
2018-02-05T13:32:02.341Z,41.50
2018-02-05T13:34:30.364Z,41.10
2018-02-05T13:36:58.416Z,40.60
2018-02-05T13:39:26.472Z,40.00
2018-02-05T13:41:54.521Z,40.10
2018-02-05T13:44:22.564Z,42.10
2018-02-05T13:46:50.601Z,39.40
2018-02-05T13:49:18.640Z,41.20
2018-02-05T13:51:47.494Z,38.50
2018-02-05T13:54:15.544Z,38.40
2018-02-05T13:56:44.372Z,41.40
2018-02-05T13:59:12.433Z,40.60
2018-02-05T14:01:41.244Z,40.70
2018-02-05T14:04:09.291Z,40.50
2018-02-05T14:06:37.316Z,39.60
2018-02-05T14:09:05.374Z,39.60
2018-02-05T14:11:34.173Z,39.20
2018-02-05T14:14:02.988Z,38.30
2018-02-05T14:16:31.046Z,38.20
2018-02-05T14:21:51.521Z,39.40
2018-02-05T14:24:19.570Z,39.30
2018-02-05T14:26:47.642Z,39.70
2018-02-05T14:29:15.669Z,39.60
2018-02-05T14:31:43.740Z,40.30
2018-02-05T14:34:11.807Z,38.40
2018-02-05T14:36:39.880Z,40.00
2018-02-05T14:39:07.908Z,39.40
2018-02-05T14:41:35.956Z,41.10
2018-02-05T14:44:04.010Z,40.50
2018-02-05T14:46:32.053Z,41.00
2018-02-05T14:49:00.112Z,40.50
2018-02-05T14:51:28.160Z,39.80
2018-02-05T14:53:56.201Z,42.00
2018-02-05T14:56:25.024Z,40.00
2018-02-05T14:58:53.056Z,39.90
2018-02-05T15:01:21.105Z,41.00
2018-02-05T15:03:49.133Z,41.60
2018-02-05T15:06:17.240Z,41.70
2018-02-05T15:08:46.061Z,41.70
2018-02-05T15:11:14.101Z,41.70
2018-02-05T15:13:42.152Z,42.10
2018-02-05T15:16:10.192Z,41.40
2018-02-05T15:18:39.012Z,42.00
2018-02-05T15:21:07.040Z,41.90
2018-02-05T15:23:35.104Z,43.80
2018-02-05T15:26:03.140Z,43.00
2018-02-05T15:28:31.944Z,44.70
2018-02-05T15:31:00.752Z,45.60
2018-02-05T15:33:28.785Z,45.60
2018-02-05T15:35:56.834Z,45.50
2018-02-05T15:38:24.864Z,45.30
2018-02-05T15:40:52.913Z,45.90
2018-02-05T15:43:20.953Z,46.10
2018-02-05T15:45:49.001Z,45.90
2018-02-05T15:48:17.025Z,46.20
2018-02-05T15:50:45.834Z,46.60
2018-02-05T15:53:14.648Z,47.00
2018-02-05T15:55:42.683Z,47.00
2018-02-05T15:58:10.736Z,47.70
2018-02-05T16:00:38.772Z,48.20
2018-02-05T16:03:07.584Z,49.00
2018-02-05T16:05:36.409Z,49.00
2018-02-05T16:08:04.436Z,49.00
2018-02-05T16:10:32.481Z,49.30
2018-02-05T16:13:00.512Z,48.90
2018-02-05T16:15:28.556Z,50.10
2018-02-05T16:17:56.600Z,49.50
2018-02-05T16:20:25.403Z,50.50
2018-02-05T16:22:54.225Z,50.00
2018-02-05T16:25:22.261Z,50.00
2018-02-05T16:27:50.309Z,50.90
2018-02-05T16:30:18.353Z,50.40
2018-02-05T16:32:47.165Z,51.50
2018-02-05T16:35:15.245Z,51.40
2018-02-05T16:37:44.053Z,51.10
2018-02-05T16:40:12.101Z,51.10
2018-02-05T16:42:40.162Z,51.10
2018-02-05T16:45:08.218Z,52.00
2018-02-05T16:47:36.240Z,52.30
2018-02-05T16:50:04.281Z,51.60
2018-02-05T16:52:32.349Z,52.50
2018-02-05T16:55:01.168Z,52.60
2018-02-05T16:57:29.184Z,52.50
2018-02-05T16:59:57.237Z,52.50
2018-02-05T17:02:25.264Z,52.80
2018-02-05T17:04:53.320Z,52.40
2018-02-05T17:07:21.372Z,52.80
2018-02-05T17:09:49.417Z,53.20
2018-02-05T17:12:17.476Z,53.70
2018-02-05T17:14:45.548Z,53.10
2018-02-05T17:17:13.603Z,52.90
2018-02-05T17:19:42.413Z,53.20
2018-02-05T17:22:10.476Z,53.10
2018-02-05T17:24:39.321Z,52.70
2018-02-05T17:27:07.368Z,52.70
2018-02-05T17:29:36.156Z,52.80
2018-02-05T17:32:05.000Z,52.70
2018-02-05T17:34:33.044Z,52.60
2018-02-05T17:37:01.094Z,53.70
2018-02-05T17:39:29.125Z,52.60
2018-02-05T17:41:57.980Z,53.50
2018-02-05T17:44:26.052Z,53.30
2018-02-05T17:46:54.134Z,53.70
2018-02-05T17:49:22.160Z,53.10
2018-02-05T17:51:50.230Z,53.50
2018-02-05T17:54:19.093Z,53.20
2018-02-05T17:56:47.148Z,53.10
2018-02-05T17:59:15.984Z,53.10
2018-02-05T18:01:44.045Z,53.00
2018-02-05T18:04:12.120Z,53.30
2018-02-05T18:06:40.950Z,53.50
2018-02-05T18:09:09.002Z,53.40
2018-02-05T18:11:37.811Z,53.80
2018-02-05T18:14:06.629Z,54.40
2018-02-05T18:16:34.688Z,54.40
2018-02-05T18:19:03.476Z,53.80
2018-02-05T18:21:31.524Z,53.70
2018-02-05T18:23:59.567Z,53.50
2018-02-05T18:26:28.390Z,53.80
2018-02-05T18:28:56.448Z,53.80
2018-02-05T18:31:25.258Z,54.70
2018-02-05T18:33:54.097Z,54.40
2018-02-05T18:36:22.124Z,54.30
2018-02-05T18:38:50.948Z,55.40
2018-02-05T18:41:19.001Z,55.50
2018-02-05T18:43:47.050Z,54.70
2018-02-05T18:46:15.097Z,55.00
2018-02-05T18:48:43.144Z,55.00
2018-02-05T18:51:11.213Z,55.00
2018-02-05T18:53:39.244Z,55.00
2018-02-05T18:56:07.307Z,55.00
2018-02-05T18:58:35.356Z,55.00
2018-02-05T19:01:03.400Z,54.90
2018-02-05T19:03:32.216Z,55.30
2018-02-05T19:06:00.277Z,54.60
2018-02-05T19:08:29.096Z,54.70
2018-02-05T19:10:57.144Z,54.70
2018-02-05T19:13:25.189Z,54.90
2018-02-05T19:15:53.240Z,55.00
2018-02-05T19:18:21.297Z,55.00
2018-02-05T19:20:49.361Z,55.00
2018-02-05T19:23:17.396Z,54.90
2018-02-05T19:25:45.564Z,54.60
2018-02-05T19:28:14.386Z,53.80
2018-02-05T19:30:43.376Z,53.80
2018-02-05T19:33:12.458Z,55.00
2018-02-05T19:35:40.497Z,54.90
2018-02-05T19:38:08.561Z,54.90
2018-02-05T19:40:36.632Z,54.90
2018-02-05T19:43:05.432Z,54.80
2018-02-05T19:45:34.248Z,55.00
2018-02-05T19:48:02.293Z,55.00
2018-02-05T19:50:30.350Z,55.30
2018-02-05T19:52:58.388Z,55.00
2018-02-05T19:55:27.700Z,55.50
2018-02-05T19:57:55.832Z,55.40
2018-02-05T20:00:23.901Z,55.60
2018-02-05T20:02:51.977Z,55.20
2018-02-05T20:05:20.073Z,55.60
2018-02-05T20:07:48.092Z,56.00
2018-02-05T20:10:16.169Z,55.40
2018-02-05T20:12:44.218Z,55.90
2018-02-05T20:15:12.984Z,56.10
2018-02-05T20:17:42.774Z,55.80
2018-02-05T20:20:11.806Z,56.10
2018-02-05T20:22:40.898Z,56.20
2018-02-05T20:25:10.725Z,56.30
2018-02-05T20:27:40.068Z,56.20
2018-02-05T20:30:10.570Z,57.00
2018-02-05T20:32:40.464Z,57.00
2018-02-05T20:35:11.738Z,57.60
2018-02-05T20:37:39.797Z,56.90
2018-02-05T20:40:07.869Z,57.00
2018-02-05T20:42:36.674Z,57.60
2018-02-05T20:45:08.727Z,57.20
2018-02-05T20:47:38.725Z,57.40
2018-02-05T20:50:07.104Z,57.90
2018-02-05T20:52:35.157Z,57.90
2018-02-05T20:55:04.009Z,58.10
2018-02-05T20:57:32.061Z,58.10
2018-02-05T21:00:00.125Z,58.60
2018-02-05T21:02:28.961Z,58.20
2018-02-05T21:04:57.000Z,58.10
2018-02-05T21:07:25.045Z,58.40
2018-02-05T21:09:53.100Z,59.50
2018-02-05T21:12:21.141Z,59.50
2018-02-05T21:14:49.204Z,59.90
2018-02-05T21:17:17.244Z,60.30
2018-02-05T21:19:45.608Z,60.00
2018-02-05T21:22:14.459Z,59.60
2018-02-05T21:24:42.517Z,59.60
2018-02-05T21:27:10.583Z,59.50
2018-02-05T21:29:38.624Z,59.80
2018-02-05T21:32:06.697Z,60.00
2018-02-05T21:34:34.737Z,61.00
2018-02-05T21:37:03.560Z,60.10
2018-02-05T21:39:31.609Z,60.00
2018-02-05T21:41:59.640Z,60.50
2018-02-05T21:44:27.704Z,60.50
2018-02-05T21:46:55.748Z,60.20
2018-02-05T21:49:23.805Z,60.70
2018-02-05T21:51:51.850Z,60.90
2018-02-05T21:54:20.672Z,60.20
2018-02-05T21:56:48.728Z,60.10
2018-02-05T21:59:17.536Z,60.90
2018-02-05T22:01:46.352Z,60.40
2018-02-05T22:04:14.421Z,60.30
2018-02-05T22:06:43.244Z,60.90
2018-02-05T22:09:11.280Z,60.80
2018-02-05T22:11:39.352Z,61.10
2018-02-05T22:14:07.392Z,61.30
2018-02-05T22:16:35.456Z,62.80
2018-02-05T22:19:04.253Z,62.20
2018-02-05T22:21:33.068Z,62.40
2018-02-05T22:24:01.130Z,62.20
2018-02-05T22:26:29.928Z,62.60
2018-02-05T22:28:58.756Z,62.00
2018-02-05T22:31:26.789Z,61.90
2018-02-05T22:33:54.825Z,62.80
2018-02-05T22:36:22.884Z,62.70
2018-02-05T22:38:50.935Z,63.30
2018-02-05T22:41:18.980Z,63.40
2018-02-05T22:43:47.041Z,63.90
2018-02-05T22:46:15.856Z,64.00
2018-02-05T22:48:43.940Z,63.80
2018-02-05T22:51:12.009Z,64.50
2018-02-05T22:53:40.816Z,64.60
2018-02-05T22:56:09.653Z,65.10
2018-02-05T22:58:37.714Z,65.00
2018-02-05T23:01:06.716Z,65.40
2018-02-05T23:03:34.818Z,65.40
2018-02-05T23:06:02.848Z,65.60
2018-02-05T23:08:30.932Z,65.80
2018-02-05T23:10:58.973Z,66.00
2018-02-05T23:13:27.037Z,65.70
2018-02-05T23:15:55.865Z,65.90
2018-02-05T23:18:23.923Z,65.80
2018-02-05T23:20:52.721Z,66.00
2018-02-05T23:23:21.544Z,66.10
2018-02-05T23:25:49.580Z,66.00
2018-02-05T23:28:17.692Z,65.90
2018-02-05T23:30:46.505Z,65.80
2018-02-05T23:33:14.561Z,65.70
2018-02-05T23:35:42.617Z,66.20
2018-02-05T23:38:10.685Z,66.10
2018-02-05T23:40:38.740Z,66.20
2018-02-05T23:43:06.797Z,66.70
2018-02-05T23:45:35.616Z,66.20
2018-02-05T23:48:03.680Z,66.70
2018-02-05T23:50:31.724Z,66.70
2018-02-05T23:52:59.788Z,67.40
2018-02-05T23:55:27.852Z,67.00
2018-02-05T23:57:56.663Z,67.40
